Time,TemperatureF,DewpointF,PressureIn,WindDirection,WindDirectionDegrees,WindSpeedMPH,WindSpeedGustMPH,Humidity,HourlyPrecipIn,Conditions,Clouds,dailyrainin,SoftwareType,DateUTC
2013-10-18 00:12:00,28.0,25.0,-100.00,North,0,0.0,0.0,90,-99.99,,,-99.99,,2013-10-18 06:12:00,
2013-10-18 00:21:00,28.0,25.0,-100.00,North,0,0.0,0.0,90,-99.99,,,-99.99,,2013-10-18 06:21:00,
2013-10-18 00:42:00,27.0,25.0,-100.00,North,0,0.0,0.0,92,-99.99,,,-99.99,,2013-10-18 06:42:00,
2013-10-18 00:52:00,27.0,26.0,-100.00,North,0,0.0,0.0,94,-99.99,,,-99.99,,2013-10-18 06:52:00,
2013-10-18 01:11:00,27.0,25.0,-100.00,North,0,0.0,0.0,93,-99.99,,,-99.99,,2013-10-18 07:11:00,
2013-10-18 01:21:00,27.0,25.0,-100.00,North,0,0.0,0.0,91,-99.99,,,-99.99,,2013-10-18 07:21:00,
2013-10-18 01:42:00,26.0,24.0,-100.00,North,0,0.0,0.0,92,-99.99,,,-99.99,,2013-10-18 07:42:00,
2013-10-18 01:52:00,26.0,24.0,-100.00,North,0,0.0,0.0,92,-99.99,,,-99.99,,2013-10-18 07:52:00,
2013-10-18 02:11:00,26.0,24.0,-100.00,North,0,0.0,0.0,91,-99.99,,,-99.99,,2013-10-18 08:11:00,
2013-10-18 02:22:00,26.0,23.0,-100.00,North,0,0.0,0.0,90,-99.99,,,-99.99,,2013-10-18 08:22:00,
2013-10-18 02:42:00,26.0,23.0,-100.00,North,0,0.0,0.0,89,-99.99,,,-99.99,,2013-10-18 08:42:00,
2013-10-18 02:52:00,26.0,23.0,-100.00,North,0,0.0,0.0,87,-99.99,,,-99.99,,2013-10-18 08:52:00,
2013-10-18 03:11:00,26.0,22.0,-100.00,North,0,0.0,0.0,86,-99.99,,,-99.99,,2013-10-18 09:11:00,
2013-10-18 03:21:00,26.0,23.0,-100.00,North,0,0.0,0.0,87,-99.99,,,-99.99,,2013-10-18 09:21:00,
2013-10-18 03:43:00,26.0,23.0,-100.00,North,0,0.0,0.0,88,-99.99,,,-99.99,,2013-10-18 09:43:00,
2013-10-18 03:53:00,26.0,23.0,-100.00,North,0,0.0,0.0,89,-99.99,,,-99.99,,2013-10-18 09:53:00,
2013-10-18 04:12:00,26.0,23.0,-100.00,North,0,0.0,0.0,88,-99.99,,,-99.99,,2013-10-18 10:12:00,
2013-10-18 04:23:00,26.0,23.0,-100.00,North,0,0.0,0.0,88,-99.99,,,-99.99,,2013-10-18 10:23:00,
2013-10-18 04:43:00,26.0,23.0,-100.00,North,0,0.0,0.0,88,-99.99,,,-99.99,,2013-10-18 10:43:00,
2013-10-18 04:53:00,26.0,23.0,-100.00,North,0,0.0,0.0,87,-99.99,,,-99.99,,2013-10-18 10:53:00,
2013-10-18 05:12:00,26.0,22.0,-100.00,North,0,0.0,0.0,85,-99.99,,,-99.99,,2013-10-18 11:12:00,
2013-10-18 05:22:00,26.0,22.0,-100.00,North,0,0.0,0.0,83,-99.99,,,-99.99,,2013-10-18 11:22:00,
2013-10-18 05:42:00,26.0,21.0,-100.00,North,0,0.0,0.0,82,-99.99,,,-99.99,,2013-10-18 11:42:00,
2013-10-18 05:52:00,26.0,22.0,-100.00,North,0,0.0,0.0,83,-99.99,,,-99.99,,2013-10-18 11:52:00,
2013-10-18 06:12:00,25.0,22.0,-100.00,North,0,0.0,0.0,90,-99.99,,,-99.99,,2013-10-18 12:12:00,
2013-10-18 06:21:00,24.0,23.0,-100.00,North,0,0.0,0.0,97,-99.99,,,-99.99,,2013-10-18 12:21:00,
2013-10-18 06:42:00,24.0,24.0,-100.00,North,0,0.0,0.0,98,-99.99,,,-99.99,,2013-10-18 12:42:00,
2013-10-18 06:52:00,24.0,24.0,-100.00,North,0,0.0,0.0,99,-99.99,,,-99.99,,2013-10-18 12:52:00,
2013-10-18 07:11:00,24.0,24.0,-100.00,North,0,0.0,0.0,99,-99.99,,,-99.99,,2013-10-18 13:11:00,
2013-10-18 07:22:00,24.0,24.0,-100.00,North,0,0.0,0.0,98,-99.99,,,-99.99,,2013-10-18 13:22:00,
2013-10-18 07:42:00,24.0,24.0,-100.00,North,0,0.0,0.0,98,-99.99,,,-99.99,,2013-10-18 13:42:00,
2013-10-18 07:52:00,24.0,24.0,-100.00,North,0,0.0,0.0,99,-99.99,,,-99.99,,2013-10-18 13:52:00,
2013-10-18 08:11:00,24.0,24.0,-100.00,North,0,0.0,0.0,99,-99.99,,,-99.99,,2013-10-18 14:11:00,
2013-10-18 08:21:00,24.0,24.0,-100.00,North,0,0.0,0.0,100,-99.99,,,-99.99,,2013-10-18 14:21:00,
2013-10-18 08:42:00,24.0,24.0,-100.00,North,0,0.0,0.0,99,-99.99,,,-99.99,,2013-10-18 14:42:00,
2013-10-18 08:52:00,24.0,24.0,-100.00,North,0,0.0,0.0,98,-99.99,,,-99.99,,2013-10-18 14:52:00,
2013-10-18 09:11:00,24.0,23.0,-100.00,North,0,0.0,0.0,97,-99.99,,,-99.99,,2013-10-18 15:11:00,
2013-10-18 09:22:00,24.0,24.0,-100.00,North,0,0.0,0.0,98,-99.99,,,-99.99,,2013-10-18 15:22:00,
2013-10-18 09:43:00,24.0,23.0,-100.00,North,0,0.0,0.0,96,-99.99,,,-99.99,,2013-10-18 15:43:00,
2013-10-18 09:54:00,25.0,24.0,-100.00,North,0,0.0,0.0,94,-99.99,,,-99.99,,2013-10-18 15:54:00,
2013-10-18 10:12:00,25.0,23.0,-100.00,North,0,0.0,0.0,92,-99.99,,,-99.99,,2013-10-18 16:12:00,
2013-10-18 10:24:00,26.0,23.0,-100.00,North,0,0.0,0.0,89,-99.99,,,-99.99,,2013-10-18 16:24:00,
2013-10-18 10:42:00,27.0,24.0,-100.00,North,0,0.0,0.0,88,-99.99,,,-99.99,,2013-10-18 16:42:00,
2013-10-18 10:53:00,27.0,24.0,-100.00,North,0,0.0,0.0,87,-99.99,,,-99.99,,2013-10-18 16:53:00,
2013-10-18 11:12:00,27.0,23.0,-100.00,North,0,0.0,0.0,85,-99.99,,,-99.99,,2013-10-18 17:12:00,
2013-10-18 11:22:00,28.0,24.0,-100.00,North,0,0.0,0.0,85,-99.99,,,-99.99,,2013-10-18 17:22:00,
2013-10-18 11:42:00,28.0,24.0,-100.00,North,0,0.0,0.0,84,-99.99,,,-99.99,,2013-10-18 17:42:00,
2013-10-18 11:52:00,28.0,24.0,-100.00,North,0,0.0,0.0,84,-99.99,,,-99.99,,2013-10-18 17:52:00,
2013-10-18 12:12:00,29.0,25.0,-100.00,North,0,0.0,0.0,83,-99.99,,,-99.99,,2013-10-18 18:12:00,
2013-10-18 12:21:00,30.0,25.0,-100.00,North,0,0.0,0.0,81,-99.99,,,-99.99,,2013-10-18 18:21:00,
2013-10-18 12:42:00,30.0,25.0,-100.00,North,0,0.0,0.0,80,-99.99,,,-99.99,,2013-10-18 18:42:00,
2013-10-18 12:52:00,31.0,25.0,-100.00,North,0,0.0,0.0,77,-99.99,,,-99.99,,2013-10-18 18:52:00,
2013-10-18 13:12:00,32.0,25.0,-100.00,North,0,0.0,0.0,76,-99.99,,,-99.99,,2013-10-18 19:12:00,
2013-10-18 13:21:00,32.0,25.0,-100.00,North,0,0.0,0.0,74,-99.99,,,-99.99,,2013-10-18 19:21:00,
2013-10-18 13:42:00,33.0,25.0,-100.00,North,0,0.0,0.0,71,-99.99,,,-99.99,,2013-10-18 19:42:00,
2013-10-18 13:52:00,33.0,24.0,-100.00,North,0,0.0,0.0,69,-99.99,,,-99.99,,2013-10-18 19:52:00,
2013-10-18 14:11:00,34.0,24.0,-100.00,North,0,0.0,0.0,67,-99.99,,,-99.99,,2013-10-18 20:11:00,
2013-10-18 14:22:00,34.0,24.0,-100.00,North,0,0.0,0.0,66,-99.99,,,-99.99,,2013-10-18 20:22:00,
2013-10-18 14:42:00,35.0,24.0,-100.00,North,0,0.0,0.0,64,-99.99,,,-99.99,,2013-10-18 20:42:00,
2013-10-18 14:52:00,34.0,23.0,-100.00,North,0,0.0,0.0,64,-99.99,,,-99.99,,2013-10-18 20:52:00,
2013-10-18 15:11:00,34.0,24.0,-100.00,North,0,0.0,0.0,66,-99.99,,,-99.99,,2013-10-18 21:11:00,
2013-10-18 15:22:00,34.0,24.0,-100.00,North,0,0.0,0.0,67,-99.99,,,-99.99,,2013-10-18 21:22:00,
2013-10-18 15:44:00,34.0,25.0,-100.00,North,0,0.0,0.0,68,-99.99,,,-99.99,,2013-10-18 21:44:00,
2013-10-18 15:54:00,35.0,25.0,-100.00,North,0,0.0,0.0,67,-99.99,,,-99.99,,2013-10-18 21:54:00,
2013-10-18 16:13:00,35.0,26.0,-100.00,North,0,0.0,0.0,69,-99.99,,,-99.99,,2013-10-18 22:13:00,
2013-10-18 16:24:00,35.0,26.0,-100.00,North,0,0.0,0.0,70,-99.99,,,-99.99,,2013-10-18 22:24:00,
2013-10-18 16:43:00,35.0,26.0,-100.00,North,0,0.0,0.0,70,-99.99,,,-99.99,,2013-10-18 22:43:00,
2013-10-18 16:54:00,35.0,27.0,-100.00,North,0,0.0,0.0,71,-99.99,,,-99.99,,2013-10-18 22:54:00,
2013-10-18 17:12:00,35.0,26.0,-100.00,North,0,0.0,0.0,70,-99.99,,,-99.99,,2013-10-18 23:12:00,
2013-10-18 17:23:00,36.0,27.0,-100.00,North,0,0.0,0.0,69,-99.99,,,-99.99,,2013-10-18 23:23:00,
2013-10-18 17:42:00,37.0,27.0,-100.00,North,0,0.0,0.0,66,-99.99,,,-99.99,,2013-10-18 23:42:00,
2013-10-18 17:53:00,39.0,27.0,-100.00,North,0,0.0,0.0,63,-99.99,,,-99.99,,2013-10-18 23:53:00,
2013-10-18 18:11:00,40.0,27.0,-100.00,North,0,0.0,0.0,60,-99.99,,,-99.99,,2013-10-19 00:11:00,
2013-10-18 18:21:00,38.0,25.0,-100.00,North,0,0.0,0.0,60,-99.99,,,-99.99,,2013-10-19 00:21:00,
2013-10-18 18:42:00,36.0,25.0,-100.00,North,0,0.0,0.0,63,-99.99,,,-99.99,,2013-10-19 00:42:00,
2013-10-18 18:52:00,36.0,25.0,-100.00,North,0,0.0,0.0,65,-99.99,,,-99.99,,2013-10-19 00:52:00,
2013-10-18 19:11:00,33.0,26.0,-100.00,North,0,0.0,0.0,75,-99.99,,,-99.99,,2013-10-19 01:11:00,
2013-10-18 19:21:00,32.0,27.0,-100.00,North,0,0.0,0.0,81,-99.99,,,-99.99,,2013-10-19 01:21:00,
2013-10-18 19:42:00,32.0,24.0,-100.00,North,0,0.0,0.0,71,-99.99,,,-99.99,,2013-10-19 01:42:00,
2013-10-18 19:53:00,32.0,17.0,-100.00,North,0,0.0,0.0,53,-99.99,,,-99.99,,2013-10-19 01:53:00,
2013-10-18 20:12:00,33.0,17.0,-100.00,North,0,0.0,0.0,51,-99.99,,,-99.99,,2013-10-19 02:12:00,
2013-10-18 20:21:00,32.0,16.0,-100.00,North,0,0.0,0.0,52,-99.99,,,-99.99,,2013-10-19 02:21:00,
2013-10-18 20:42:00,32.0,16.0,-100.00,North,0,0.0,0.0,52,-99.99,,,-99.99,,2013-10-19 02:42:00,
2013-10-18 20:52:00,32.0,15.0,-100.00,North,0,0.0,0.0,48,-99.99,,,-99.99,,2013-10-19 02:52:00,
2013-10-18 21:12:00,33.0,12.0,-100.00,North,0,0.0,0.0,41,-99.99,,,-99.99,,2013-10-19 03:12:00,
2013-10-18 21:23:00,33.0,11.0,-100.00,North,0,0.0,0.0,39,-99.99,,,-99.99,,2013-10-19 03:23:00,
2013-10-18 21:44:00,32.0,12.0,-100.00,North,0,0.0,0.0,42,-99.99,,,-99.99,,2013-10-19 03:44:00,
2013-10-18 21:55:00,32.0,14.0,-100.00,North,0,0.0,0.0,47,-99.99,,,-99.99,,2013-10-19 03:55:00,
2013-10-18 22:13:00,31.0,15.0,-100.00,North,0,0.0,0.0,50,-99.99,,,-99.99,,2013-10-19 04:13:00,
2013-10-18 22:24:00,31.0,12.0,-100.00,North,0,0.0,0.0,45,-99.99,,,-99.99,,2013-10-19 04:24:00,
2013-10-18 22:43:00,32.0,11.0,-100.00,North,0,0.0,0.0,41,-99.99,,,-99.99,,2013-10-19 04:43:00,
2013-10-18 22:54:00,32.0,12.0,-100.00,North,0,0.0,0.0,43,-99.99,,,-99.99,,2013-10-19 04:54:00,
2013-10-18 23:13:00,32.0,12.0,-100.00,North,0,0.0,0.0,42,-99.99,,,-99.99,,2013-10-19 05:13:00,
2013-10-18 23:22:00,32.0,11.0,-100.00,North,0,0.0,0.0,41,-99.99,,,-99.99,,2013-10-19 05:22:00,
2013-10-18 23:42:00,31.0,14.0,-100.00,North,0,0.0,0.0,48,-99.99,,,-99.99,,2013-10-19 05:42:00,
2013-10-18 23:52:00,31.0,12.0,-100.00,North,0,0.0,0.0,45,-99.99,,,-99.99,,2013-10-19 05:52:00,